Tiempo atmosférico en la estación meteorológica de Valleseco, Las Palmas (900 m.)



Fecha
DESCASC
Temp. máxima en grados centígrados (hora)
DESCASC
Temp. mínima en grados centígrados (hora)
DESCASC
Temp. media en grados centígrados
DESCASC
Racha de viento máxima en m/sg (hora)
DESCASC
Velocidad máxima media en intervalos de 10 minutos(hora)
DESCASC
Precipitaciones diarias en mm
DESCASC
Precipitaciones de 00:00 a 06:00 en mm
DESCASC
Precipitaciones de 06:00 a 12:00 en mm
DESCASC
Precipitaciones de 12:00 a 18:00 en mm
DESCASC
Precipitaciones de 18:00 a 24:00 en mm
DESCASC
15-08-2019 27.7 (11:40) 17.5 (02:30) 22.6 5.56 (20:50) 3.89 (23:50) 0 0 0 0 0
14-08-2019 26.8 (17:00) 12.8 (00:00) 19.8 4.17 (15:40) 2.22 (05:20) 0 0 0 0 0
13-08-2019 22.7 (12:50) 13.3 (00:00) 18 6.67 (00:10) 3.33 (14:20) 0 0 0 0 0
12-08-2019 22.6 (16:30) 14.4 (00:00) 18.5 7.5 (01:00) 4.17 (00:30) 0 0 0 0 0
11-08-2019 21.4 (18:00) 14.5 (00:00) 17.9 6.11 (23:50) 3.06 (23:50) 2 1.6 0.4 0 0
10-08-2019 28.1 (11:30) 17.4 (00:00) 22.8 5.28 (13:00) 2.78 (11:50) 0 0 0 0 0
09-08-2019 30.9 (11:20) 20.5 (00:00) 25.7 4.17 (15:30) 2.5 (04:20) 0 0 0 0 0
08-08-2019 29.4 (11:40) 14.6 (00:00) 22 5.56 (02:40) 4.72 (04:00) 0 0 0 0 0
07-08-2019 25.9 (16:10) 13.6 (00:00) 19.8 5.28 (13:10) 2.78 (15:00) 0 0 0 0 0
06-08-2019 23.6 (14:30) 14.7 (00:00) 19.2 7.78 (16:20) 4.72 (16:20) 0 0 0 0 0
05-08-2019 24.5 (15:00) 14.6 (00:00) 19.6 6.67 (06:50) 3.33 (17:20) 0 0 0 0 0
04-08-2019 21.7 (15:50) 12.5 (00:00) 17.1 6.67 (14:50) 3.61 (16:50) 0 0 0 0 0
03-08-2019 21.5 (14:40) 12.7 (00:00) 17.1 6.94 (17:10) 3.89 (17:10) 0 0 0 0 0
02-08-2019 22.3 (15:30) 13.4 (00:00) 17.8 5.83 (17:00) 3.33 (13:10) 0 0 0 0 0
01-08-2019 21.9 (15:30) 13.1 (00:00) 17.5 6.11 (13:50) 3.61 (02:20) 0 0 0 0 0
31-07-2019 19.8 (16:00) 12.3 (00:00) 16 8.89 (00:30) 4.72 (03:00) 0.4 0.4 0 0 0
30-07-2019 15.7 (00:00) 13.5 (00:00) 14.6 9.44 (07:40) 5.56 (07:40) 6.6 0.2 5 1.2 0.2
29-07-2019 22.8 (15:30) 13.6 (00:00) 18.2 7.78 (19:20) 3.89 (18:30) 0 0 0 0 0
28-07-2019 20.2 (14:40) 13.5 (00:00) 16.9 6.11 (16:20) 3.89 (22:40) 1.6 0.2 1.2 0.2 0
27-07-2019 23.1 (14:50) 13.5 (00:00) 18.3 4.44 (01:50) 2.22 (00:40) 0 0 0 0 0
26-07-2019 27.5 (12:40) 16 (00:00) 21.8 6.11 (07:00) 5 (07:00) 0 0 0 0 0
25-07-2019 28 (14:10) 15.5 (00:00) 21.8 6.67 (14:20) 3.89 (11:00) 0 0 0 0 0
24-07-2019 28.6 (16:20) 13.2 (00:00) 20.9 7.5 (07:20) 3.33 (07:20) 0 0 0 0 0
23-07-2019 23.6 (13:00) 12.2 (00:00) 17.9 6.11 (02:30) 3.33 (00:10) 0 0 0 0 0
22-07-2019 22.9 (14:40) 13.5 (00:00) 18.2 5.56 (23:40) 3.06 (23:10) 0 0 0 0 0
21-07-2019 24.3 (15:50) 13.6 (00:00) 18.9 4.72 (05:50) 2.5 (06:40) 0 0 0 0 0
20-07-2019 21.1 (17:30) 13.8 (00:00) 17.5 5.56 (08:10) 3.33 (18:10) 1.8 0.6 1.2 0 0
19-07-2019 20.7 (14:50) 12.9 (00:00) 16.8 8.33 (08:40) 5.28 (05:20) 0.2 0 0 0 0.2

Gráficas

Temp. máximas Temp. mínimas Temp. medias Precipitaciones Rachas de viento máximas Velocidades máximas media en intervalos de 10 minutos

Datos horarios

Fecha y hora oficial Temperatura (ºC) Velocidad del viento (km/h) Dirección del viento Racha (km/h) Dirección de racha Precipitación (mm) Presión (hPa) Tendencia (hPa) Humedad (%)
2019-08-17 23:00:00 25.7 13 Sudeste 22 Sudeste 0 -- -- 21
2019-08-17 22:00:00 25.6 11 Sudeste 21 Sudeste 0 -- -- 21
2019-08-17 21:00:00 26.1 11 Sudeste 22 Este 0 -- -- 23
2019-08-17 20:00:00 29.4 4 Este 14 Este 0 -- -- 20
2019-08-17 19:00:00 30.4 10 Este 15 Sudeste 0 -- -- 21
2019-08-17 18:00:00 30.4 12 Sudeste 17 Sudeste 0 -- -- 20
2019-08-17 17:00:00 29.3 10 Sudeste 18 Este 0 -- -- 31
2019-08-17 16:00:00 35.3 8 Este 18 Este 0 -- -- 12
2019-08-17 15:00:00 35.1 10 Sudeste 19 Este 0 -- -- 21
2019-08-17 14:00:00 34.2 12 Sudeste 21 Sudeste 0 -- -- 15
2019-08-17 13:00:00 34.1 14 Este 21 Este 0 -- -- 19
2019-08-17 12:00:00 34.9 11 Este 21 Este 0 -- -- 19
2019-08-17 11:00:00 34.1 13 Sudeste 20 Sudeste 0 -- -- 18
2019-08-17 10:00:00 32.6 13 Sudeste 22 Sudeste 0 -- -- 17
2019-08-17 09:00:00 29.3 15 Sudeste 21 Sudeste 0 -- -- 19
2019-08-17 08:00:00 27 17 Sudeste 23 Sudeste 0 -- -- 20
2019-08-17 07:00:00 26.5 17 Sudeste 30 Sudeste 0 -- -- 22
2019-08-17 06:00:00 26.5 21 Sudeste 32 Sudeste 0 -- -- 21
2019-08-17 05:00:00 27.5 22 Sudeste 35 Sudeste 0 -- -- 19
2019-08-17 04:00:00 28.6 12 Sudeste 29 Este 0 -- -- 17
2019-08-17 03:00:00 27.3 14 Sudeste 23 Sudeste 0 -- -- 19
2019-08-17 02:00:00 27.2 9 Sudeste 22 Este 0 -- -- 19
2019-08-17 01:00:00 26.8 10 Sudeste 14 Sudeste 0 -- -- 20
2019-08-17 00:00:00 28.4 4 Este 10 Nordeste 0 -- -- 19
2019-08-16 23:00:00 28.1 7 Sudeste 15 Este 0 -- -- 19
2019-08-16 22:00:00 28.3 10 Este 17 Sudeste 0 -- -- 23
2019-08-16 21:00:00 28.8 10 Este 13 Este 0 -- -- 19
2019-08-16 20:00:00 30.2 9 Este 17 Este 0 -- -- 22
2019-08-16 19:00:00 34.4 9 Este 17 Este 0 -- -- 20
2019-08-16 18:00:00 34.7 11 Este 20 Este 0 -- -- 23
2019-08-16 17:00:00 34.5 13 Sudeste 25 Este 0 -- -- 22
2019-08-16 16:00:00 32.8 20 Sudeste 28 Sudeste 0 -- -- 21
2019-08-16 15:00:00 31.6 18 Este 27 Sudeste 0 -- -- 24
2019-08-16 14:00:00 29.7 14 Este 23 Este 0 -- -- 35
2019-08-16 13:00:00 31.2 16 Este 24 Sudeste 0 -- -- 26
2019-08-16 12:00:00 30.5 15 Este 22 Sudeste 0 -- -- 26
2019-08-16 11:00:00 30.4 15 Este 22 Sudeste 0 -- -- 26
2019-08-16 10:00:00 29.3 14 Sudeste 23 Sudeste 0 -- -- 25
2019-08-16 09:00:00 26.1 14 Este 20 Este 0 -- -- 30
2019-08-16 08:00:00 27.4 14 Sudeste 21 Sudeste 0 -- -- 14
2019-08-16 07:00:00 24.4 16 Sudeste 21 Sudeste 0 -- -- 26
2019-08-16 06:00:00 24 15 Sudeste 18 Sudeste 0 -- -- 30
2019-08-16 05:00:00 24.5 12 Sudeste 18 Este 0 -- -- 28
2019-08-16 04:00:00 23.4 13 Sudeste 19 Este 0 -- -- 31
2019-08-16 03:00:00 22.7 16 Sudeste 20 Sudeste 0 -- -- 33
2019-08-16 02:00:00 24 13 Sudeste 19 Sudeste 0 -- -- 31
2019-08-16 01:00:00 24.2 14 Sudeste 22 Sudeste 0 -- -- 30
2019-08-16 00:00:00 22.3 14 Sudeste 18 Este 0 -- -- 28
2019-08-15 23:00:00 20.1 12 Este 18 Este 0 -- -- 48
2019-08-15 22:00:00 19.4 11 Este 19 Este 0 -- -- 57
2019-08-15 21:00:00 20.2 8 Este 20 Este 0 -- -- 57
2019-08-15 20:00:00 22.5 3 Nordeste 7 Este 0 -- -- 51
2019-08-15 19:00:00 23.6 4 Norte 6 Norte 0 -- -- 67
2019-08-15 18:00:00 24.3 4 Noroeste 9 Noroeste 0 -- -- 64
2019-08-15 17:00:00 25.6 4 Norte 9 Noroeste 0 -- -- 60
2019-08-15 16:00:00 24.7 6 Norte 10 Norte 0 -- -- 63
2019-08-15 15:00:00 26.4 5 Norte 10 Oeste 0 -- -- 57
2019-08-15 14:00:00 27.1 4 Norte 12 Este 0 -- -- 54
2019-08-15 13:00:00 26.3 3 Norte 12 Nordeste 0 -- -- 54
2019-08-15 12:00:00 27.1 4 Oeste 12 Norte 0 -- -- 49
2019-08-15 11:00:00 26 4 Noroeste 14 Este 0 -- -- 36
2019-08-15 10:00:00 25 4 Este 9 Este 0 -- -- 32
2019-08-15 09:00:00 21.9 4 Este 10 Nordeste 0 -- -- 36
2019-08-15 08:00:00 19 4 Nordeste 6 Norte 0 -- -- 39
2019-08-15 07:00:00 18.8 0 Calma 6 Sudeste 0 -- -- 48
2019-08-15 06:00:00 19.2 3 Sur 6 Sudoeste 0 -- -- 51
2019-08-15 05:00:00 18.7 3 Norte 6 Norte 0 -- -- 25
2019-08-15 04:00:00 19 2 Norte 6 Nordeste 0 -- -- 29
2019-08-15 03:00:00 18.6 3 Nordeste 6 Nordeste 0 -- -- 37
2019-08-15 02:00:00 17.6 3 Sudeste 6 Sudeste 0 -- -- 54
2019-08-15 01:00:00 18.6 2 Sudeste 5 Este 0 -- -- 56
2019-08-15 00:00:00 18.9 0 Calma 6 Sudoeste 0 -- -- 53
2019-08-14 23:00:00 19.4 3 Sudoeste 6 Oeste 0 -- -- 42
2019-08-14 22:00:00 19.7 0 Calma 5 Norte 0 -- -- 29
2019-08-14 21:00:00 19.7 2 Nordeste 8 Nordeste 0 -- -- 28
2019-08-14 20:00:00 23.2 3 Nordeste 8 Este 0 -- -- 39
2019-08-14 19:00:00 22.7 4 Noroeste 9 Norte 0 -- -- 65
2019-08-14 18:00:00 25.3 3 Nordeste 12 Sudeste 0 -- -- 44
2019-08-14 17:00:00 26.8 5 Sudeste 15 Sur 0 -- -- 33
2019-08-14 16:00:00 25.1 5 Sudoeste 15 Sudeste 0 -- -- 48
2019-08-14 15:00:00 25.5 7 Oeste 15 Oeste 0 -- -- 49
2019-08-14 14:00:00 25 6 Noroeste 13 Noroeste 0 -- -- 45
2019-08-14 13:00:00 25.1 4 Oeste 10 Norte 0 -- -- 51
2019-08-14 12:00:00 24.1 6 Norte 12 Sur 0 -- -- 45
2019-08-14 11:00:00 24.2 4 Nordeste 13 Este 0 -- -- 41
2019-08-14 10:00:00 24.1 3 Nordeste 13 Sudeste 0 -- -- 33
2019-08-14 09:00:00 20 6 Este 13 Sudeste 0 -- -- 35
2019-08-14 08:00:00 16.6 5 Este 15 Nordeste 0 -- -- 37
2019-08-14 07:00:00 16.2 5 Este 13 Sudeste 0 -- -- 38
2019-08-14 06:00:00 16.5 6 Sudeste 14 Este 0 -- -- 37
2019-08-14 05:00:00 16.2 5 Este 15 Este 0 -- -- 44
2019-08-14 04:00:00 16.2 5 Este 12 Nordeste 0 -- -- 44
2019-08-14 03:00:00 15.2 3 Sur 9 Sur 0 -- -- 54
2019-08-14 02:00:00 12.8 4 Este 8 Noroeste 0 -- -- 88
2019-08-14 01:00:00 13.2 6 Noroeste 12 Noroeste 0 -- -- 95
2019-08-14 00:00:00 13.4 6 Norte 12 Norte 0 -- -- 93
2019-08-13 23:00:00 13.5 6 Norte 12 Noroeste 0 -- -- 92
2019-08-13 22:00:00 14 6 Noroeste 13 Norte 0 -- -- 89
2019-08-13 21:00:00 14.6 6 Oeste 15 Noroeste 0 -- -- 87
2019-08-13 20:00:00 17.9 9 Noroeste 17 Noroeste 0 -- -- 74
2019-08-13 19:00:00 18.3 8 Noroeste 16 Noroeste 0 -- -- 75
2019-08-13 18:00:00 18.5 9 Norte 18 Noroeste 0 -- -- 70
2019-08-13 17:00:00 21.4 10 Noroeste 19 Norte 0 -- -- 57
2019-08-13 16:00:00 21.4 10 Norte 23 Norte 0 -- -- 60
2019-08-13 15:00:00 21.7 10 Norte 19 Noroeste 0 -- -- 61
2019-08-13 14:00:00 21.5 12 Norte 18 Noroeste 0 -- -- 57
2019-08-13 13:00:00 22.4 9 Norte 18 Norte 0 -- -- 54
2019-08-13 12:00:00 22.1 10 Norte 18 Noroeste 0 -- -- 50
2019-08-13 11:00:00 21.5 7 Norte 13 Norte 0 -- -- 44
2019-08-13 10:00:00 20.1 4 Norte 10 Sur 0 -- -- 57
2019-08-13 09:00:00 17.3 4 Norte 12 Este 0 -- -- 63
2019-08-13 08:00:00 14 3 Norte 14 Noroeste 0 -- -- 70
2019-08-13 07:00:00 14.7 5 Norte 16 Noroeste 0 -- -- 53
2019-08-13 06:00:00 13.6 8 Oeste 16 Oeste 0 -- -- 88
2019-08-13 05:00:00 13.6 6 Oeste 13 Sudoeste 0 -- -- 89
2019-08-13 04:00:00 13.7 5 Noroeste 10 Noroeste 0 -- -- 87
2019-08-13 03:00:00 15.2 6 Noroeste 13 Norte 0 -- -- 71
2019-08-13 02:00:00 17.6 4 Oeste 16 Este 0 -- -- 37
2019-08-13 01:00:00 18.2 4 Norte 24 Nordeste 0 -- -- 27
2019-08-13 00:00:00 17.7 6 Sudoeste 17 Norte 0 -- -- 31
2019-08-12 23:00:00 17.5 8 Oeste 20 Este 0 -- -- 35
2019-08-12 22:00:00 16.8 5 Norte 15 Sudoeste 0 -- -- 42
2019-08-12 21:00:00 17.4 6 Oeste 18 Norte 0 -- -- 47
2019-08-12 20:00:00 20.5 3 Norte 15 Norte 0 -- -- 31
2019-08-12 19:00:00 21 6 Noroeste 14 Noroeste 0 -- -- 47
2019-08-12 18:00:00 21.5 7 Noroeste 15 Norte 0 -- -- 58
2019-08-12 17:00:00 21.4 8 Norte 17 Norte 0 -- -- 55
2019-08-12 16:00:00 22.1 10 Norte 21 Norte 0 -- -- 61
2019-08-12 15:00:00 21.8 10 Norte 18 Norte 0 -- -- 61
2019-08-12 14:00:00 21 12 Norte 20 Norte 0 -- -- 65
2019-08-12 13:00:00 20.8 6 Norte 18 Norte 0 -- -- 66
2019-08-12 12:00:00 21 6 Norte 13 Noroeste 0 -- -- 63
2019-08-12 11:00:00 20 5 Noroeste 15 Norte 0 -- -- 69
2019-08-12 10:00:00 20 5 Norte 16 Norte 0 -- -- 67
2019-08-12 09:00:00 17.7 5 Sudeste 13 Sudeste 0 -- -- 74
2019-08-12 08:00:00 14.8 2 Este 12 Este 0 -- -- 92
2019-08-12 07:00:00 14.6 3 Sudeste 11 Sudeste 0 -- -- 93
2019-08-12 06:00:00 14.7 4 Norte 10 Norte 0 -- -- 92
2019-08-12 05:00:00 14.9 3 Sudeste 22 Sudeste 0 -- -- 86
2019-08-12 04:00:00 15.7 10 Sudeste 25 Sudeste 0 -- -- 75
2019-08-12 03:00:00 14.7 5 Sudeste 16 Sudeste 0 -- -- 83
2019-08-12 02:00:00 15.4 7 Sudeste 20 Nordeste 0 -- -- 65
2019-08-12 01:00:00 16.8 13 Este 27 Este 0 -- -- 48
2019-08-12 00:00:00 16.4 11 Sudeste 22 Este 0 -- -- 37
2019-08-11 23:00:00 15.6 5 Sur 13 Norte 0 -- -- 60
2019-08-11 22:00:00 14.6 3 Nordeste 8 Sudeste 0 -- -- 91
2019-08-11 21:00:00 15.6 3 Sur 14 Norte 0 -- -- 89
2019-08-11 20:00:00 18.7 4 Norte 13 Noroeste 0 -- -- 73
2019-08-11 19:00:00 20.9 7 Norte 13 Nordeste 0 -- -- 64
2019-08-11 18:00:00 21.4 4 Norte 15 Norte 0 -- -- 66
2019-08-11 17:00:00 20.4 5 Noroeste 16 Norte 0 -- -- 61
2019-08-11 16:00:00 19.8 7 Norte 16 Norte 0 -- -- 80
2019-08-11 15:00:00 18.9 6 Norte 17 Noroeste 0 -- -- 90
2019-08-11 14:00:00 18.7 4 Norte 17 Noroeste 0 -- -- 87
2019-08-11 13:00:00 19.3 7 Noroeste 16 Norte 0 -- -- 88
2019-08-11 12:00:00 18.4 7 Noroeste 15 Noroeste 0 -- -- 97
2019-08-11 11:00:00 17.2 8 Noroeste 18 Norte 0 -- -- 98
2019-08-11 10:00:00 17 7 Norte 18 Norte 0 -- -- 98
2019-08-11 09:00:00 17 6 Norte 12 Norte 0 -- -- 98
2019-08-11 08:00:00 17 6 Norte 13 Norte 0.2 -- -- 98
2019-08-11 07:00:00 17.1 4 Norte 9 Norte 0.2 -- -- 98
2019-08-11 06:00:00 17.4 2 Sudoeste 13 Norte 0.4 -- -- 98
2019-08-11 05:00:00 17.3 5 Nordeste 10 Norte 0.2 -- -- 98
2019-08-11 04:00:00 17.4 3 Este 13 Este 0.4 -- -- 98
2019-08-11 03:00:00 17.5 3 Sudeste 12 Este 0.4 -- -- 97
2019-08-11 02:00:00 17.5 4 Este 12 Este 0.2 -- -- 96
2019-08-11 01:00:00 17.5 4 Sudoeste 15 Norte 0 -- -- 94
2019-08-11 00:00:00 17.8 5 Oeste 14 Noroeste 0 -- -- 90
2019-08-10 23:00:00 17.4 5 Noroeste 10 Noroeste 0 -- -- 85
2019-08-10 22:00:00 19.8 4 Noroeste 11 Oeste 0 -- -- 60
2019-08-10 21:00:00 20.2 5 Noroeste 12 Oeste 0 -- -- 64
2019-08-10 20:00:00 23.7 3 Noroeste 9 Noroeste 0 -- -- 56
2019-08-10 19:00:00 24.8 5 Noroeste 11 Noroeste 0 -- -- 57
2019-08-10 18:00:00 26 5 Noroeste 13 Norte 0 -- -- 57
2019-08-10 17:00:00 26.2 4 Nordeste 13 Norte 0 -- -- 58
2019-08-10 16:00:00 28 4 Sudeste 12 Este 0 -- -- 51
2019-08-10 15:00:00 26.4 5 Este 13 Sudeste 0 -- -- 57
2019-08-10 14:00:00 26 4 Norte 17 Sudeste 0 -- -- 58
2019-08-10 13:00:00 26.6 10 Sudeste 19 Sudeste 0 -- -- 55
2019-08-10 12:00:00 27.5 8 Sudeste 17 Este 0 -- -- 46
2019-08-10 11:00:00 27.7 9 Sudeste 14 Sudeste 0 -- -- 35
2019-08-10 10:00:00 26.1 8 Este 12 Este 0 -- -- 41
2019-08-10 09:00:00 23.3 6 Sudeste 8 Sudeste 0 -- -- 36
2019-08-10 08:00:00 22 3 Nordeste 9 Norte 0 -- -- 22
2019-08-10 07:00:00 20.3 3 Norte 11 Noroeste 0 -- -- 32
2019-08-10 06:00:00 19.3 5 Noroeste 13 Norte 0 -- -- 38
2019-08-10 05:00:00 19 5 Oeste 11 Norte 0 -- -- 37
2019-08-10 04:00:00 18.2 8 Norte 12 Norte 0 -- -- 42
2019-08-10 03:00:00 19.4 5 Oeste 8 Sudoeste 0 -- -- 35
2019-08-10 02:00:00 19.5 2 Este 10 Sudeste 0 -- -- 31
2019-08-10 01:00:00 18.9 8 Sudeste 15 Este 0 -- -- 43
2019-08-10 00:00:00 20.5 5 Sudeste 7 Sudeste 0 -- -- 29
2019-08-09 23:00:00 21.4 4 Norte 7 Norte 0 -- -- 27
2019-08-09 22:00:00 21 4 Norte 9 Norte 0 -- -- 29
2019-08-09 21:00:00 21.9 0 Calma 5 Norte 0 -- -- 36
2019-08-09 20:00:00 24.1 4 Noroeste 10 Noroeste 0 -- -- 44
2019-08-09 19:00:00 27.9 4 Noroeste 8 Noroeste 0 -- -- 51
2019-08-09 18:00:00 27.3 4 Noroeste 8 Norte 0 -- -- 55
2019-08-09 17:00:00 28.7 4 Este 13 Sudeste 0 -- -- 50
2019-08-09 16:00:00 30.2 6 Este 15 Sudeste 0 -- -- 42
2019-08-09 15:00:00 30.9 5 Este 12 Sudeste 0 -- -- 44
2019-08-09 14:00:00 30.2 4 Este 14 Sudeste 0 -- -- 45
2019-08-09 13:00:00 29 6 Sudeste 14 Este 0 -- -- 46
2019-08-09 12:00:00 28.9 7 Sudeste 13 Este 0 -- -- 42
2019-08-09 11:00:00 29.8 6 Este 11 Sudeste 0 -- -- 36
2019-08-09 10:00:00 27.4 3 Sudeste 10 Sudeste 0 -- -- 16
2019-08-09 09:00:00 26.2 3 Sudeste 8 Norte 0 -- -- 19
2019-08-09 08:00:00 24.4 2 Norte 10 Oeste 0 -- -- 11
2019-08-09 07:00:00 23.5 9 Oeste 11 Oeste 0 -- -- 13
2019-08-09 06:00:00 23.3 7 Oeste 11 Noroeste 0 -- -- 18
2019-08-09 05:00:00 23 5 Oeste 13 Noroeste 0 -- -- 22
2019-08-09 04:00:00 21.7 8 Oeste 10 Oeste 0 -- -- 30
2019-08-09 03:00:00 22.5 6 Oeste 7 Oeste 0 -- -- 34
2019-08-09 02:00:00 22.3 4 Noroeste 7 Oeste 0 -- -- 31
2019-08-09 01:00:00 22.6 4 Noroeste 7 Noroeste 0 -- -- 36
2019-08-09 00:00:00 22.3 4 Noroeste 8 Norte 0 -- -- 28
2019-08-08 23:00:00 22 7 Norte 9 Norte 0 -- -- 38
2019-08-08 22:00:00 21.8 5 Noroeste 9 Norte 0 -- -- 37
2019-08-08 21:00:00 22.8 3 Noroeste 6 Norte 0 -- -- 70
2019-08-08 20:00:00 25.2 2 Noroeste 7 Noroeste 0 -- -- 62
2019-08-08 19:00:00 26.2 4 Norte 9 Noroeste 0 -- -- 59
2019-08-08 18:00:00 27.4 4 Noroeste 10 Norte 0 -- -- 57
2019-08-08 17:00:00 27.3 4 Norte 12 Este 0 -- -- 57
2019-08-08 16:00:00 27 4 Norte 12 Este 0 -- -- 59
2019-08-08 15:00:00 28.3 3 Este 12 Este 0 -- -- 54
2019-08-08 14:00:00 27.8 3 Nordeste 19 Sudeste 0 -- -- 55
2019-08-08 13:00:00 28.8 5 Norte 11 Sudeste 0 -- -- 48
2019-08-08 12:00:00 28.8 4 Este 14 Este 0 -- -- 51
2019-08-08 11:00:00 27.9 6 Sudeste 14 Sudeste 0 -- -- 38
2019-08-08 10:00:00 28.4 2 Sudeste 9 Sudeste 0 -- -- 24
2019-08-08 09:00:00 25 3 Sudoeste 13 Sudeste 0 -- -- 19
2019-08-08 08:00:00 21.4 8 Sudeste 17 Sudeste 0 -- -- 21
2019-08-08 07:00:00 18.5 15 Sudeste 19 Sudeste 0 -- -- 34
2019-08-08 06:00:00 17.9 14 Sudeste 18 Sudeste 0 -- -- 32
2019-08-08 05:00:00 18.5 11 Sudeste 19 Sudeste 0 -- -- 31
2019-08-08 04:00:00 17.8 17 Sudeste 20 Sudeste 0 -- -- 33
2019-08-08 03:00:00 17.6 11 Sudeste 20 Sudeste 0 -- -- 33
2019-08-08 02:00:00 18.8 12 Sudeste 15 Sudeste 0 -- -- 36
2019-08-08 01:00:00 18.3 5 Sudeste 9 Este 0 -- -- 39
2019-08-08 00:00:00 15 7 Este 14 Sudeste 0 -- -- 97
2019-08-07 23:00:00 15.1 8 Sudeste 15 Sudeste 0 -- -- 95
2019-08-07 22:00:00 18.1 2 Este 8 Sudeste 0 -- -- 74
2019-08-07 21:00:00 16.6 6 Sudeste 10 Sudeste 0 -- -- 90
2019-08-07 20:00:00 19.7 3 Noroeste 6 Sudeste 0 -- -- 79
2019-08-07 19:00:00 22.6 3 Norte 11 Noroeste 0 -- -- 70
2019-08-07 18:00:00 23.2 5 Noroeste 11 Oeste 0 -- -- 66
2019-08-07 17:00:00 23.3 6 Oeste 11 Oeste 0 -- -- 65
2019-08-07 16:00:00 25 5 Sudeste 16 Sudeste 0 -- -- 59
2019-08-07 15:00:00 24.3 10 Este 17 Sudeste 0 -- -- 60
2019-08-07 14:00:00 24.5 4 Norte 19 Este 0 -- -- 59
2019-08-07 13:00:00 25.5 5 Este 12 Sudeste 0 -- -- 55
2019-08-07 12:00:00 22.4 4 Nordeste 12 Norte 0 -- -- 66
2019-08-07 11:00:00 20.7 6 Norte 12 Norte 0 -- -- 73
2019-08-07 10:00:00 17 2 Norte 11 Nordeste 0 -- -- 91
2019-08-07 09:00:00 15.3 6 Noroeste 12 Norte 0 -- -- 97
2019-08-07 08:00:00 14.1 5 Norte 7 Norte 0 -- -- 97
2019-08-07 07:00:00 14.9 3 Noroeste 6 Norte 0 -- -- 83
2019-08-07 06:00:00 13.9 3 Noroeste 11 Noroeste 0 -- -- 97
2019-08-07 05:00:00 13.8 5 Norte 10 Norte 0 -- -- 96
2019-08-07 04:00:00 14.4 4 Nordeste 10 Este 0 -- -- 94
2019-08-07 03:00:00 14.9 6 Noroeste 11 Noroeste 0 -- -- 94
2019-08-07 02:00:00 14.4 2 Este 9 Sudoeste 0 -- -- 94
2019-08-07 01:00:00 14.6 4 Oeste 9 Noroeste 0 -- -- 93
2019-08-07 00:00:00 15 5 Oeste 14 Oeste 0 -- -- 91
2019-08-06 23:00:00 14.8 6 Oeste 17 Noroeste 0 -- -- 92
2019-08-06 22:00:00 15.5 8 Noroeste 17 Noroeste 0 -- -- 93
2019-08-06 21:00:00 15.9 6 Noroeste 18 Norte 0 -- -- 89
2019-08-06 20:00:00 17 11 Noroeste 19 Noroeste 0 -- -- 82
2019-08-06 19:00:00 18.8 9 Noroeste 21 Noroeste 0 -- -- 77
2019-08-06 18:00:00 21.3 12 Noroeste 25 Noroeste 0 -- -- 66
2019-08-06 17:00:00 20.3 14 Noroeste 28 Norte 0 -- -- 72
2019-08-06 16:00:00 22.8 14 Noroeste 24 Norte 0 -- -- 65
2019-08-06 15:00:00 23.1 14 Norte 24 Norte 0 -- -- 62
2019-08-06 14:00:00 22.4 13 Noroeste 25 Norte 0 -- -- 65
2019-08-06 13:00:00 22.8 10 Norte 21 Norte 0 -- -- 64
2019-08-06 12:00:00 21.4 11 Norte 20 Norte 0 -- -- 68
2019-08-06 11:00:00 19.4 6 Noroeste 18 Oeste 0 -- -- 75
2019-08-06 10:00:00 17.2 8 Oeste 15 Oeste 0 -- -- 84
2019-08-06 09:00:00 15.9 7 Oeste 15 Oeste 0 -- -- 90
2019-08-06 08:00:00 14.9 7 Noroeste 17 Noroeste 0 -- -- 94
2019-08-06 07:00:00 14.9 6 Oeste 13 Noroeste 0 -- -- 94
2019-08-06 06:00:00 15 2 Sudoeste 14 Noroeste 0 -- -- 95
2019-08-06 05:00:00 15.1 7 Noroeste 14 Sudoeste 0 -- -- 95
2019-08-06 04:00:00 15.2 5 Norte 13 Norte 0 -- -- 95
2019-08-06 03:00:00 15.3 4 Noroeste 12 Norte 0 -- -- 95
2019-08-06 02:00:00 15.6 3 Noroeste 20 Norte 0 -- -- 93
2019-08-06 01:00:00 15.2 6 Noroeste 17 Norte 0 -- -- 91
2019-08-06 00:00:00 15.6 8 Noroeste 19 Norte 0 -- -- 85
2019-08-05 23:00:00 15.6 3 Noroeste 13 Noroeste 0 -- -- 93
2019-08-05 22:00:00 16.3 5 Oeste 12 Noroeste 0 -- -- 91
2019-08-05 21:00:00 16.5 6 Norte 13 Noroeste 0 -- -- 89
2019-08-05 20:00:00 17.5 4 Norte 14 Noroeste 0 -- -- 82
2019-08-05 19:00:00 20 6 Noroeste 12 Noroeste 0 -- -- 73
2019-08-05 18:00:00 20.4 8 Norte 19 Norte 0 -- -- 73
2019-08-05 17:00:00 23.1 8 Norte 19 Norte 0 -- -- 61
2019-08-05 16:00:00 23.1 11 Norte 20 Noroeste 0 -- -- 62
2019-08-05 15:00:00 24.5 5 Nordeste 16 Este 0 -- -- 56
2019-08-05 14:00:00 22.8 6 Nordeste 20 Norte 0 -- -- 58
2019-08-05 13:00:00 21.8 9 Norte 19 Norte 0 -- -- 65
2019-08-05 12:00:00 22 7 Norte 16 Norte 0 -- -- 61
2019-08-05 11:00:00 20.6 3 Norte 13 Norte 0 -- -- 73
2019-08-05 10:00:00 17.7 5 Norte 12 Norte 0 -- -- 85
2019-08-05 09:00:00 15.9 4 Norte 15 Sudoeste 0 -- -- 91
2019-08-05 08:00:00 15.1 6 Norte 13 Sudoeste 0 -- -- 93
2019-08-05 07:00:00 14.8 10 Norte 24 Norte 0 -- -- 96
2019-08-05 06:00:00 15 6 Noroeste 15 Noroeste 0 -- -- 97
2019-08-05 05:00:00 15.1 8 Norte 18 Noroeste 0 -- -- 97
2019-08-05 04:00:00 15.4 10 Noroeste 22 Noroeste 0 -- -- 95
2019-08-05 03:00:00 15 6 Oeste 14 Norte 0 -- -- 88
2019-08-05 02:00:00 14.9 4 Norte 13 Nordeste 0 -- -- 91
2019-08-05 01:00:00 14.8 5 Norte 10 Nordeste 0 -- -- 91
2019-08-05 00:00:00 14.8 3 Sur 20 Norte 0 -- -- 92
2019-08-04 23:00:00 15.4 3 Noroeste 13 Norte 0 -- -- 92
2019-08-04 22:00:00 15.1 4 Norte 16 Nordeste 0 -- -- 88
2019-08-04 21:00:00 15.4 3 Nordeste 16 Nordeste 0 -- -- 87
2019-08-04 20:00:00 16.5 7 Norte 18 Nordeste 0 -- -- 87
2019-08-04 19:00:00 17.7 9 Norte 18 Nordeste 0 -- -- 79
2019-08-04 18:00:00 20.1 9 Noroeste 21 Norte 0 -- -- 68
2019-08-04 17:00:00 20.6 11 Norte 23 Norte 0 -- -- 66
2019-08-04 16:00:00 21.2 11 Norte 22 Noroeste 0 -- -- 64
2019-08-04 15:00:00 21 11 Noroeste 24 Norte 0 -- -- 67
2019-08-04 14:00:00 20.9 8 Norte 21 Noroeste 0 -- -- 67
2019-08-04 13:00:00 21.2 9 Norte 19 Norte 0 -- -- 64
2019-08-04 12:00:00 19.2 8 Noroeste 18 Noroeste 0 -- -- 72
2019-08-04 11:00:00 17.8 8 Noroeste 16 Noroeste 0 -- -- 80
2019-08-04 10:00:00 16.4 6 Noroeste 13 Noroeste 0 -- -- 83
2019-08-04 09:00:00 14.8 5 Norte 10 Norte 0 -- -- 95
2019-08-04 08:00:00 13.4 4 Oeste 12 Noroeste 0 -- -- 95
2019-08-04 07:00:00 13.6 5 Noroeste 14 Noroeste 0 -- -- 96
2019-08-04 06:00:00 13.4 7 Oeste 12 Oeste 0 -- -- 96
2019-08-04 05:00:00 13.3 6 Oeste 14 Oeste 0 -- -- 97
2019-08-04 04:00:00 12.9 7 Oeste 12 Noroeste 0 -- -- 97
2019-08-04 03:00:00 12.9 5 Noroeste 10 Noroeste 0 -- -- 97
2019-08-04 02:00:00 12.5 5 Norte 10 Noroeste 0 -- -- 96
2019-08-04 01:00:00 12.8 5 Noroeste 11 Norte 0 -- -- 95
2019-08-04 00:00:00 13.1 5 Norte 11 Norte 0 -- -- 95
2019-08-03 23:00:00 13.8 5 Oeste 13 Noroeste 0 -- -- 92
2019-08-03 22:00:00 14.1 7 Oeste 13 Noroeste 0 -- -- 93
2019-08-03 21:00:00 14.5 7 Noroeste 18 Sudoeste 0 -- -- 89
2019-08-03 20:00:00 18 7 Noroeste 16 Oeste 0 -- -- 78
2019-08-03 19:00:00 18 10 Noroeste 21 Noroeste 0 -- -- 77
2019-08-03 18:00:00 20.3 13 Noroeste 25 Noroeste 0 -- -- 68
2019-08-03 17:00:00 20.6 12 Noroeste 20 Oeste 0 -- -- 68
2019-08-03 16:00:00 20.5 13 Noroeste 25 Noroeste 0 -- -- 67
2019-08-03 15:00:00 19.5 12 Noroeste 22 Norte 0 -- -- 74
2019-08-03 14:00:00 20.9 11 Noroeste 21 Noroeste 0 -- -- 68
2019-08-03 13:00:00 20 10 Noroeste 18 Noroeste 0 -- -- 73
2019-08-03 12:00:00 18.8 10 Noroeste 18 Noroeste 0 -- -- 77
2019-08-03 11:00:00 19.9 6 Norte 11 Noroeste 0 -- -- 73
2019-08-03 10:00:00 17 7 Noroeste 12 Oeste 0 -- -- 87
2019-08-03 09:00:00 14.3 8 Oeste 13 Oeste 0 -- -- 98
2019-08-03 08:00:00 13.5 8 Oeste 17 Oeste 0 -- -- 99
2019-08-03 07:00:00 13.5 7 Noroeste 13 Noroeste 0 -- -- 98
2019-08-03 06:00:00 12.8 6 Noroeste 9 Noroeste 0 -- -- 98
2019-08-03 05:00:00 13.3 5 Norte 9 Norte 0 -- -- 98
2019-08-03 04:00:00 13.4 4 Noroeste 15 Norte 0 -- -- 96
2019-08-03 03:00:00 13.6 9 Norte 19 Norte 0 -- -- 97
2019-08-03 02:00:00 13.1 3 Nordeste 10 Nordeste 0 -- -- 95
2019-08-03 01:00:00 13.7 6 Nordeste 15 Sudeste 0 -- -- 93
2019-08-03 00:00:00 14.4 4 Noroeste 12 Norte 0 -- -- 92
2019-08-02 23:00:00 14.8 5 Oeste 12 Oeste 0 -- -- 93
2019-08-02 22:00:00 15 8 Oeste 16 Oeste 0 -- -- 93
2019-08-02 21:00:00 15 8 Noroeste 15 Noroeste 0 -- -- 91
2019-08-02 20:00:00 17.4 9 Noroeste 16 Noroeste 0 -- -- 80
2019-08-02 19:00:00 19.8 8 Noroeste 20 Norte 0 -- -- 71
2019-08-02 18:00:00 20.4 11 Noroeste 20 Noroeste 0 -- -- 71
2019-08-02 17:00:00 21.8 10 Norte 21 Noroeste 0 -- -- 67
2019-08-02 16:00:00 21.2 8 Norte 18 Norte 0 -- -- 64
2019-08-02 15:00:00 21.2 10 Norte 20 Norte 0 -- -- 66
2019-08-02 14:00:00 20.5 11 Norte 19 Norte 0 -- -- 67
2019-08-02 13:00:00 20.4 12 Norte 19 Norte 0 -- -- 69
2019-08-02 12:00:00 20.5 6 Norte 15 Norte 0 -- -- 68
2019-08-02 11:00:00 17.3 4 Noroeste 11 Noroeste 0 -- -- 80
2019-08-02 10:00:00 16.1 5 Noroeste 13 Noroeste 0 -- -- 88
2019-08-02 09:00:00 14.8 6 Noroeste 12 Noroeste 0 -- -- 93
2019-08-02 08:00:00 13.9 3 Noroeste 6 Noroeste 0 -- -- 97
2019-08-02 07:00:00 14.2 3 Noroeste 10 Nordeste 0 -- -- 96
2019-08-02 06:00:00 13.8 5 Sudoeste 12 Norte 0 -- -- 95
2019-08-02 05:00:00 13.8 3 Oeste 10 Sur 0 -- -- 96
2019-08-02 04:00:00 13.7 7 Norte 17 Norte 0 -- -- 96
2019-08-02 03:00:00 13.7 4 Noroeste 9 Noroeste 0 -- -- 95
2019-08-02 02:00:00 14 4 Norte 17 Norte 0 -- -- 94
2019-08-02 01:00:00 14.1 3 Sur 14 Oeste 0 -- -- 93
2019-08-02 00:00:00 14.1 6 Noroeste 17 Noroeste 0 -- -- 93
2019-08-01 23:00:00 14.2 8 Oeste 13 Noroeste 0 -- -- 92
2019-08-01 22:00:00 14.5 9 Oeste 17 Noroeste 0 -- -- 92
2019-08-01 21:00:00 15.2 7 Noroeste 17 Norte 0 -- -- 89
2019-08-01 20:00:00 16.4 8 Noroeste 19 Noroeste 0 -- -- 84
2019-08-01 19:00:00 19 10 Noroeste 21 Norte 0 -- -- 71
2019-08-01 18:00:00 20.8 11 Noroeste 21 Norte 0 -- -- 65
2019-08-01 17:00:00 20.9 11 Noroeste 21 Noroeste 0 -- -- 67
2019-08-01 16:00:00 21.6 10 Noroeste 21 Norte 0 -- -- 67
2019-08-01 15:00:00 21.6 12 Noroeste 22 Noroeste 0 -- -- 61
2019-08-01 14:00:00 20 12 Norte 22 Norte 0 -- -- 68
2019-08-01 13:00:00 18.8 9 Norte 21 Norte 0 -- -- 76
2019-08-01 12:00:00 19.9 9 Norte 21 Norte 0 -- -- 68
2019-08-01 11:00:00 15.9 5 Norte 10 Norte 0 -- -- 90
2019-08-01 10:00:00 16 3 Oeste 14 Noroeste 0 -- -- 83
2019-08-01 09:00:00 14.2 3 Oeste 14 Noroeste 0 -- -- 92
2019-08-01 08:00:00 13.4 7 Noroeste 14 Noroeste 0 -- -- 96
2019-08-01 07:00:00 13.4 5 Oeste 16 Noroeste 0 -- -- 93
2019-08-01 06:00:00 13.4 5 Oeste 15 Noroeste 0 -- -- 93
2019-08-01 05:00:00 13.2 8 Oeste 17 Norte 0 -- -- 95
2019-08-01 04:00:00 13.1 10 Oeste 17 Oeste 0 -- -- 95
2019-08-01 03:00:00 13.2 10 Oeste 22 Sudoeste 0 -- -- 95
2019-08-01 02:00:00 13.2 11 Noroeste 21 Noroeste 0 -- -- 95
2019-08-01 01:00:00 13.5 9 Noroeste 18 Noroeste 0 -- -- 96
2019-08-01 00:00:00 13.7 10 Noroeste 17 Noroeste 0 -- -- 96
2019-07-31 23:00:00 13.4 10 Noroeste 21 Noroeste 0 -- -- 97
2019-07-31 22:00:00 13.7 11 Noroeste 21 Noroeste 0 -- -- 96
2019-07-31 21:00:00 13.9 13 Oeste 22 Oeste 0 -- -- 91
2019-07-31 20:00:00 15.2 11 Noroeste 20 Noroeste 0 -- -- 86
2019-07-31 19:00:00 16.3 12 Noroeste 23 Noroeste 0 -- -- 84
2019-07-31 18:00:00 18 13 Noroeste 26 Oeste 0 -- -- 73
2019-07-31 17:00:00 19.3 15 Noroeste 27 Noroeste 0 -- -- 70
2019-07-31 16:00:00 19.8 14 Noroeste 26 Noroeste 0 -- -- 67
2019-07-31 15:00:00 18.7 14 Noroeste 24 Noroeste 0 -- -- 73
2019-07-31 14:00:00 18.6 13 Noroeste 24 Norte 0 -- -- 72
2019-07-31 13:00:00 17.8 12 Norte 22 Norte 0 -- -- 81
2019-07-31 12:00:00 16.7 10 Noroeste 27 Noroeste 0 -- -- 81
2019-07-31 11:00:00 14.9 15 Noroeste 26 Norte 0 -- -- 95
2019-07-31 10:00:00 13.5 13 Noroeste 24 Noroeste 0 -- -- 100
2019-07-31 09:00:00 13 10 Noroeste 22 Noroeste 0 -- -- 100
2019-07-31 08:00:00 12.4 11 Oeste 21 Oeste 0 -- -- 100
2019-07-31 07:00:00 12.5 9 Noroeste 21 Noroeste 0 -- -- 100
2019-07-31 06:00:00 12.4 12 Oeste 22 Noroeste 0 -- -- 100
2019-07-31 05:00:00 12.7 12 Oeste 23 Noroeste 0 -- -- 100
2019-07-31 04:00:00 13 14 Noroeste 28 Noroeste 0.2 -- -- 100
2019-07-31 03:00:00 13.3 17 Noroeste 29 Noroeste 0 -- -- 100
2019-07-31 02:00:00 13.5 15 Noroeste 24 Noroeste 0.2 -- -- 100
2019-07-31 01:00:00 13.2 8 Oeste 32 Noroeste 0 -- -- 100
2019-07-31 00:00:00 13.6 10 Noroeste 27 Noroeste 0 -- -- 100
2019-07-30 23:00:00 13.7 10 Noroeste 30 Norte 0 -- -- 100
2019-07-30 22:00:00 13.8 12 Noroeste 29 Norte 0 -- -- 99
2019-07-30 21:00:00 14 17 Norte 31 Norte 0 -- -- 99
2019-07-30 20:00:00 14.1 10 Noroeste 30 Noroeste 0.2 -- -- 99
2019-07-30 19:00:00 14.3 19 Noroeste 31 Noroeste 0 -- -- 99
2019-07-30 18:00:00 14.4 13 Noroeste 27 Norte 0 -- -- 99
2019-07-30 17:00:00 15.4 12 Noroeste 28 Noroeste 0 -- -- 98
2019-07-30 16:00:00 14.9 15 Noroeste 29 Norte 0.2 -- -- 99
2019-07-30 15:00:00 14.9 13 Noroeste 32 Norte 0.2 -- -- 99
2019-07-30 14:00:00 15.3 15 Noroeste 26 Norte 0.2 -- -- 99
2019-07-30 13:00:00 15.2 14 Noroeste 29 Noroeste 0.6 -- -- 99
2019-07-30 12:00:00 15.2 13 Noroeste 28 Noroeste 1.2 -- -- 99
2019-07-30 11:00:00 15.3 9 Noroeste 33 Noroeste 1.2 -- -- 99
2019-07-30 10:00:00 15.4 10 Norte 28 Noroeste 0.6 -- -- 99
2019-07-30 09:00:00 14.9 14 Norte 27 Noroeste 0.6 -- -- 99
2019-07-30 08:00:00 14.7 15 Norte 34 Noroeste 0.8 -- -- 99
2019-07-30 07:00:00 15.2 10 Noroeste 31 Norte 0.6 -- -- 99
2019-07-30 06:00:00 15 10 Oeste 27 Norte 0 -- -- 99
2019-07-30 05:00:00 15 11 Noroeste 32 Norte 0 -- -- 98
2019-07-30 04:00:00 15.1 9 Noroeste 29 Noroeste 0.2 -- -- 98
2019-07-30 03:00:00 15.2 9 Noroeste 21 Norte 0 -- -- 97
2019-07-30 02:00:00 15.3 5 Norte 20 Norte 0 -- -- 97
2019-07-30 01:00:00 15.4 7 Norte 25 Nordeste 0 -- -- 97
2019-07-30 00:00:00 15.7 9 Norte 24 Noroeste 0 -- -- 96
2019-07-29 23:00:00 15.7 7 Norte 24 Nordeste 0 -- -- 94
2019-07-29 22:00:00 15.6 6 Oeste 19 Sudoeste 0 -- -- 90
2019-07-29 21:00:00 15.9 5 Noroeste 19 Norte 0 -- -- 87
2019-07-29 20:00:00 16.6 7 Norte 28 Norte 0 -- -- 84
2019-07-29 19:00:00 18.1 11 Noroeste 26 Noroeste 0 -- -- 75
2019-07-29 18:00:00 21 11 Noroeste 20 Oeste 0 -- -- 65
2019-07-29 17:00:00 21.3 12 Noroeste 27 Noroeste 0 -- -- 64
2019-07-29 16:00:00 21.4 10 Noroeste 20 Noroeste 0 -- -- 64
2019-07-29 15:00:00 22 10 Noroeste 19 Norte 0 -- -- 60
2019-07-29 14:00:00 20.8 10 Noroeste 21 Norte 0 -- -- 66
2019-07-29 13:00:00 18.8 7 Noroeste 19 Norte 0 -- -- 79
2019-07-29 12:00:00 18.3 9 Noroeste 19 Norte 0 -- -- 76
2019-07-29 11:00:00 16.5 10 Noroeste 18 Oeste 0 -- -- 85
2019-07-29 10:00:00 14.9 8 Noroeste 15 Noroeste 0 -- -- 95
2019-07-29 09:00:00 14.3 7 Oeste 15 Noroeste 0 -- -- 98
2019-07-29 08:00:00 14.1 9 Noroeste 19 Oeste 0 -- -- 99
2019-07-29 07:00:00 13.6 9 Noroeste 20 Oeste 0 -- -- 99
2019-07-29 06:00:00 13.8 8 Noroeste 21 Noroeste 0 -- -- 99
2019-07-29 05:00:00 13.9 10 Oeste 17 Oeste 0 -- -- 98
2019-07-29 04:00:00 13.9 10 Oeste 15 Noroeste 0 -- -- 98
2019-07-29 03:00:00 14.2 9 Noroeste 20 Oeste 0 -- -- 97
2019-07-29 02:00:00 14.3 9 Oeste 15 Oeste 0 -- -- 96
2019-07-29 01:00:00 14.3 8 Noroeste 17 Noroeste 0 -- -- 97
2019-07-29 00:00:00 14.4 9 Noroeste 17 Noroeste 0 -- -- 97
2019-07-28 23:00:00 14.5 8 Noroeste 22 Noroeste 0 -- -- 97
2019-07-28 22:00:00 14.7 11 Noroeste 21 Oeste 0 -- -- 96
2019-07-28 21:00:00 15.1 9 Noroeste 17 Norte 0 -- -- 96
2019-07-28 20:00:00 16.3 10 Noroeste 17 Oeste 0 -- -- 92
2019-07-28 19:00:00 18 13 Noroeste 19 Oeste 0 -- -- 84
2019-07-28 18:00:00 18.7 11 Noroeste 17 Noroeste 0 -- -- 87
2019-07-28 17:00:00 18.5 11 Noroeste 22 Noroeste 0 -- -- 90
2019-07-28 16:00:00 19 10 Noroeste 18 Noroeste 0 -- -- 91
2019-07-28 15:00:00 19.9 9 Noroeste 17 Oeste 0 -- -- 87
2019-07-28 14:00:00 19.7 9 Noroeste 17 Noroeste 0.2 -- -- 94
2019-07-28 13:00:00 18.9 10 Oeste 17 Oeste 0 -- -- 95
2019-07-28 12:00:00 18.9 9 Noroeste 19 Noroeste 0 -- -- 97
2019-07-28 11:00:00 17.7 8 Norte 17 Norte 0.6 -- -- 98
2019-07-28 10:00:00 17.4 9 Noroeste 14 Noroeste 0.4 -- -- 98
2019-07-28 09:00:00 16.2 8 Oeste 15 Oeste 0.2 -- -- 99
2019-07-28 08:00:00 15.1 6 Sudoeste 12 Sudoeste 0 -- -- 99
2019-07-28 07:00:00 15.1 4 Noroeste 10 Norte 0 -- -- 98
2019-07-28 06:00:00 15.2 5 Sudoeste 9 Oeste 0.2 -- -- 98
2019-07-28 05:00:00 15.2 6 Sudoeste 14 Sudoeste 0 -- -- 98
2019-07-28 04:00:00 15 3 Oeste 13 Oeste 0 -- -- 97
2019-07-28 03:00:00 15 3 Este 14 Sudeste 0 -- -- 97
2019-07-28 02:00:00 14.8 8 Sudoeste 15 Sudoeste 0 -- -- 96
2019-07-28 01:00:00 14.3 3 Noroeste 15 Nordeste 0 -- -- 95
2019-07-28 00:00:00 13.5 3 Norte 9 Norte 0 -- -- 88
2019-07-27 23:00:00 13.5 6 Nordeste 9 Nordeste 0 -- -- 92
2019-07-27 22:00:00 13.9 4 Norte 9 Norte 0 -- -- 90
2019-07-26 11:00:00 -- -- -- -- -- -- -- -- --
2019-07-26 10:00:00 27 6 Sudeste 12 Este 0 -- -- 32
2019-07-26 09:00:00 23.4 9 Sudeste 14 Este 0 -- -- 42
2019-07-26 08:00:00 20 9 Este 19 Sudeste 0 -- -- 47
2019-07-26 07:00:00 18.4 18 Sudeste 22 Sudeste 0 -- -- 61
2019-07-26 06:00:00 18.5 13 Este 20 Este 0 -- -- 71
2019-07-26 05:00:00 18 13 Sudeste 18 Sudeste 0 -- -- 69
2019-07-26 04:00:00 17.6 13 Sudeste 18 Sudeste 0 -- -- 72
2019-07-26 03:00:00 17.5 10 Sudeste 18 Sudeste 0 -- -- 74
2019-07-26 02:00:00 17.5 9 Sudeste 17 Sudeste 0 -- -- 82
2019-07-26 01:00:00 17.4 4 Este 16 Este 0 -- -- 68
2019-07-26 00:00:00 18.7 5 Oeste 17 Norte 0 -- -- 41
2019-07-25 23:00:00 16.7 7 Norte 13 Norte 0 -- -- 80
2019-07-25 22:00:00 17.5 6 Norte 12 Oeste 0 -- -- 58
2019-07-25 21:00:00 18.6 7 Noroeste 12 Oeste 0 -- -- 43
2019-07-25 20:00:00 23 6 Oeste 15 Noroeste 0 -- -- 29
2019-07-25 19:00:00 25.8 6 Noroeste 15 Norte 0 -- -- 36
2019-07-25 18:00:00 26.2 9 Norte 19 Norte 0 -- -- 32
2019-07-25 17:00:00 26.8 9 Norte 20 Norte 0 -- -- 29
2019-07-25 16:00:00 26 10 Norte 17 Norte 0 -- -- 34
2019-07-25 15:00:00 28 5 Norte 24 Este 0 -- -- 30
2019-07-25 14:00:00 27.3 8 Este 21 Este 0 -- -- 31
2019-07-25 13:00:00 27.1 10 Este 23 Este 0 -- -- 29
2019-07-25 12:00:00 27.1 9 Este 24 Sudeste 0 -- -- 25
2019-07-25 11:00:00 24.9 14 Sudeste 20 Este 0 -- -- 25
2019-07-25 10:00:00 25.7 5 Este 13 Este 0 -- -- 26
2019-07-25 09:00:00 23.2 5 Este 17 Este 0 -- -- 28
2019-07-25 08:00:00 18.2 13 Sudeste 18 Sudeste 0 -- -- 39
2019-07-25 07:00:00 17.9 7 Este 19 Este 0 -- -- 34
2019-07-25 06:00:00 18.3 11 Sudeste 21 Este 0 -- -- 33
2019-07-25 05:00:00 17.6 10 Sudeste 19 Este 0 -- -- 37
2019-07-25 04:00:00 17.8 12 Este 21 Este 0 -- -- 35
2019-07-25 03:00:00 17.9 7 Este 19 Nordeste 0 -- -- 35
2019-07-25 02:00:00 17.7 5 Este 17 Nordeste 0 -- -- 35
2019-07-25 01:00:00 18.5 4 Este 12 Este 0 -- -- 31
2019-07-25 00:00:00 19.6 3 Nordeste 15 Nordeste 0 -- -- 29
2019-07-24 23:00:00 19.7 3 Nordeste 13 Norte 0 -- -- 28
2019-07-24 22:00:00 19.6 5 Norte 11 Noroeste 0 -- -- 29
2019-07-24 21:00:00 19.9 3 Oeste 10 Oeste 0 -- -- 40
2019-07-24 20:00:00 21.9 5 Oeste 9 Noroeste 0 -- -- 58
2019-07-24 19:00:00 25.4 5 Noroeste 13 Norte 0 -- -- 43
2019-07-24 18:00:00 26.6 6 Noroeste 21 Norte 0 -- -- 39
2019-07-24 17:00:00 27.5 9 Norte 20 Norte 0 -- -- 32
2019-07-24 16:00:00 28 6 Nordeste 13 Nordeste 0 -- -- 34
2019-07-24 15:00:00 27.6 4 Norte 16 Nordeste 0 -- -- 46
2019-07-24 14:00:00 27.9 6 Este 17 Nordeste 0 -- -- 35
2019-07-24 13:00:00 28.2 7 Este 17 Sudeste 0 -- -- 31
2019-07-24 12:00:00 26.4 5 Este 16 Este 0 -- -- 46
2019-07-24 11:00:00 26 8 Este 21 Nordeste 0 -- -- 42
2019-07-24 10:00:00 24.8 8 Este 20 Sudeste 0 -- -- 25
2019-07-24 09:00:00 23 8 Este 16 Nordeste 0 -- -- 20
2019-07-24 08:00:00 18.2 9 Sudeste 27 Este 0 -- -- 42
2019-07-24 07:00:00 17.9 10 Este 20 Nordeste 0 -- -- 57
2019-07-24 06:00:00 17.7 9 Este 17 Nordeste 0 -- -- 58
2019-07-24 05:00:00 18.3 6 Nordeste 14 Este 0 -- -- 55
2019-07-24 04:00:00 18.3 7 Sudeste 14 Sudeste 0 -- -- 55
2019-07-24 03:00:00 18.7 4 Sudeste 14 Este 0 -- -- 55
2019-07-24 02:00:00 16.1 5 Nordeste 17 Nordeste 0 -- -- 71
2019-07-24 01:00:00 14.1 5 Noroeste 14 Sudoeste 0 -- -- 86
2019-07-24 00:00:00 14.2 4 Noroeste 14 Noroeste 0 -- -- 93
2019-07-23 23:00:00 13.6 7 Oeste 15 Oeste 0 -- -- 95
2019-07-23 22:00:00 13.6 6 Noroeste 16 Norte 0 -- -- 93
2019-07-23 21:00:00 14.7 6 Noroeste 10 Noroeste 0 -- -- 90
2019-07-23 20:00:00 18 7 Noroeste 15 Noroeste 0 -- -- 78
2019-07-23 19:00:00 20.1 9 Noroeste 15 Noroeste 0 -- -- 71
2019-07-23 18:00:00 21.1 9 Noroeste 16 Noroeste 0 -- -- 68
2019-07-23 17:00:00 21.3 10 Norte 18 Norte 0 -- -- 65
2019-07-23 16:00:00 21.7 10 Norte 18 Norte 0 -- -- 66
2019-07-23 15:00:00 22.7 7 Norte 13 Norte 0 -- -- 62
2019-07-23 14:00:00 22.8 6 Norte 12 Norte 0 -- -- 62
2019-07-23 13:00:00 23.6 4 Norte 12 Norte 0 -- -- 61
2019-07-23 12:00:00 21.8 5 Norte 12 Norte 0 -- -- 66
2019-07-23 11:00:00 20.5 4 Norte 11 Noroeste 0 -- -- 68
2019-07-23 10:00:00 21 3 Noroeste 9 Norte 0 -- -- 59
2019-07-23 09:00:00 16.2 4 Noroeste 9 Noroeste 0 -- -- 86
2019-07-23 08:00:00 12.4 7 Oeste 14 Noroeste 0 -- -- 99
2019-07-23 07:00:00 12.5 8 Noroeste 16 Norte 0 -- -- 99
2019-07-23 06:00:00 13.2 10 Oeste 16 Oeste 0 -- -- 99
2019-07-23 05:00:00 13.4 6 Oeste 16 Oeste 0 -- -- 98
2019-07-23 04:00:00 13.6 9 Noroeste 21 Oeste 0 -- -- 99
2019-07-23 03:00:00 13.5 12 Oeste 22 Oeste 0 -- -- 98
2019-07-23 02:00:00 13.7 9 Noroeste 19 Oeste 0 -- -- 98
2019-07-23 01:00:00 13.9 9 Noroeste 20 Noroeste 0 -- -- 97
2019-07-23 00:00:00 14 10 Noroeste 20 Oeste 0 -- -- 97
2019-07-22 23:00:00 14.2 10 Noroeste 18 Noroeste 0 -- -- 96
2019-07-22 22:00:00 14.5 8 Noroeste 12 Noroeste 0 -- -- 95
2019-07-22 21:00:00 15.4 6 Noroeste 10 Noroeste 0 -- -- 92
2019-07-22 20:00:00 18.1 5 Noroeste 11 Noroeste 0 -- -- 81
2019-07-22 19:00:00 21 5 Noroeste 12 Norte 0 -- -- 71
2019-07-22 18:00:00 22.6 5 Noroeste 12 Noroeste 0 -- -- 65
2019-07-22 17:00:00 22.3 7 Noroeste 16 Norte 0 -- -- 66
2019-07-22 16:00:00 22.7 7 Norte 18 Noroeste 0 -- -- 65
2019-07-22 15:00:00 22.2 8 Norte 16 Noroeste 0 -- -- 67
2019-07-22 14:00:00 22.3 6 Noroeste 15 Norte 0 -- -- 68
2019-07-22 13:00:00 22 6 Norte 11 Norte 0 -- -- 68
2019-07-22 12:00:00 21.6 5 Noroeste 10 Norte 0 -- -- 69
2019-07-22 11:00:00 19.2 5 Norte 11 Norte 0 -- -- 79
2019-07-22 10:00:00 15.8 4 Norte 10 Norte 0 -- -- 95
2019-07-22 09:00:00 14.8 6 Norte 13 Norte 0 -- -- 99
2019-07-22 08:00:00 13.8 6 Noroeste 11 Noroeste 0 -- -- 99
2019-07-22 07:00:00 13.7 4 Noroeste 16 Noroeste 0 -- -- 99
2019-07-22 06:00:00 13.8 6 Noroeste 13 Noroeste 0 -- -- 99
2019-07-22 05:00:00 14.1 5 Noroeste 12 Noroeste 0 -- -- 99
2019-07-22 04:00:00 14 5 Noroeste 14 Noroeste 0 -- -- 98
2019-07-22 03:00:00 14 4 Noroeste 10 Norte 0 -- -- 98
2019-07-22 02:00:00 14.1 5 Noroeste 13 Norte 0 -- -- 98
2019-07-22 01:00:00 13.5 3 Norte 8 Norte 0 -- -- 97
2019-07-22 00:00:00 14.1 2 Noroeste 9 Noroeste 0 -- -- 92
2019-07-21 23:00:00 14.2 6 Norte 8 Norte 0 -- -- 95
2019-07-21 22:00:00 19 0 Calma 9 Sudeste 0 -- -- 38
2019-07-21 21:00:00 15.9 0 Calma 6 Oeste 0 -- -- 89
2019-07-21 20:00:00 18.2 5 Noroeste 9 Noroeste 0 -- -- 80
2019-07-21 19:00:00 20.4 4 Noroeste 10 Oeste 0 -- -- 74
2019-07-21 18:00:00 21.9 7 Noroeste 13 Noroeste 0 -- -- 67
2019-07-21 17:00:00 22.4 8 Norte 13 Norte 0 -- -- 67
2019-07-21 16:00:00 23.7 5 Este 13 Sur 0 -- -- 63
2019-07-21 15:00:00 23 4 Norte 13 Sudeste 0 -- -- 65
2019-07-21 14:00:00 21.2 5 Norte 12 Noroeste 0 -- -- 72
2019-07-21 13:00:00 21.8 5 Noroeste 12 Norte 0 -- -- 71
2019-07-21 12:00:00 21.3 5 Noroeste 9 Norte 0 -- -- 72
2019-07-21 11:00:00 20.5 5 Nordeste 11 Este 0 -- -- 74
2019-07-21 10:00:00 17 3 Norte 10 Este 0 -- -- 96
2019-07-21 09:00:00 14.8 3 Este 12 Sudeste 0 -- -- 99
2019-07-21 08:00:00 14.3 6 Sudeste 15 Este 0 -- -- 99
2019-07-21 07:00:00 13.8 6 Este 14 Este 0 -- -- 99
2019-07-21 06:00:00 14 8 Nordeste 17 Este 0 -- -- 98
2019-07-21 05:00:00 14.4 4 Sudeste 11 Sudeste 0 -- -- 98
2019-07-21 04:00:00 14.5 5 Sudeste 10 Sudeste 0 -- -- 98
2019-07-21 03:00:00 14.8 3 Este 9 Este 0 -- -- 98
2019-07-21 02:00:00 14.5 3 Sudeste 13 Sudeste 0 -- -- 97
2019-07-21 01:00:00 14.8 2 Este 10 Norte 0 -- -- 97
2019-07-21 00:00:00 14.6 4 Este 9 Este 0 -- -- 95
2019-07-20 23:00:00 14.9 5 Sudeste 9 Este 0 -- -- 96
2019-07-20 22:00:00 15.1 5 Este 10 Este 0 -- -- 95
2019-07-20 21:00:00 15.3 3 Noroeste 11 Norte 0 -- -- 94
2019-07-20 20:00:00 16 6 Norte 17 Noroeste 0 -- -- 90
2019-07-20 19:00:00 17.5 8 Noroeste 20 Norte 0 -- -- 84
2019-07-20 18:00:00 20.8 10 Noroeste 19 Norte 0 -- -- 71
2019-07-20 17:00:00 20.9 9 Norte 20 Norte 0 -- -- 69
2019-07-20 16:00:00 20.7 9 Norte 17 Norte 0 -- -- 71
2019-07-20 15:00:00 18.7 8 Norte 15 Norte 0 -- -- 82
2019-07-20 14:00:00 18.1 8 Norte 17 Nordeste 0 -- -- 87
2019-07-20 13:00:00 16.8 5 Norte 16 Norte 0 -- -- 95
2019-07-20 12:00:00 15.8 6 Norte 14 Norte 0 -- -- 98
2019-07-20 11:00:00 15.4 6 Noroeste 16 Norte 0.2 -- -- 99
2019-07-20 10:00:00 15.2 5 Oeste 11 Noroeste 0.2 -- -- 99
2019-07-20 09:00:00 14.5 5 Oeste 20 Oeste 0.2 -- -- 99
2019-07-20 08:00:00 14.5 5 Noroeste 17 Oeste 0.4 -- -- 99
2019-07-20 07:00:00 14.2 5 Oeste 14 Oeste 0.2 -- -- 99
2019-07-20 06:00:00 14.1 6 Noroeste 18 Noroeste 0 -- -- 99
2019-07-20 05:00:00 14.2 6 Noroeste 15 Noroeste 0.2 -- -- 99
2019-07-20 04:00:00 14 4 Noroeste 13 Oeste 0 -- -- 99
2019-07-20 03:00:00 14 6 Noroeste 18 Noroeste 0.2 -- -- 99
2019-07-20 02:00:00 14.4 3 Oeste 16 Noroeste 0.2 -- -- 98
2019-07-20 01:00:00 14.5 4 Oeste 17 Norte 0 -- -- 98
2019-07-20 00:00:00 14.5 3 Noroeste 15 Norte 0.2 -- -- 98
2019-07-19 23:00:00 14.4 6 Oeste 28 Norte 0 -- -- 97
2019-07-19 22:00:00 14.4 7 Noroeste 22 Norte 0 -- -- 96
2019-07-19 21:00:00 14.8 11 Norte 22 Norte 0 -- -- 95
2019-07-19 20:00:00 15.5 8 Noroeste 27 Norte 0 -- -- 93
2019-07-19 19:00:00 16.7 9 Noroeste 21 Noroeste 0 -- -- 85
2019-07-19 18:00:00 17.7 13 Noroeste 22 Noroeste 0 -- -- 81
2019-07-19 17:00:00 17.7 11 Noroeste 22 Noroeste 0 -- -- 80
2019-07-19 16:00:00 19.4 11 Noroeste 24 Noroeste 0 -- -- 73
2019-07-19 15:00:00 19.8 12 Noroeste 26 Norte 0 -- -- 70
2019-07-19 14:00:00 19.4 14 Noroeste 28 Noroeste 0 -- -- 72
2019-07-19 13:00:00 18.7 11 Noroeste 25 Noroeste 0 -- -- 74
2019-07-19 12:00:00 17 16 Norte 25 Noroeste 0 -- -- 82
2019-07-19 11:00:00 15.9 14 Noroeste 28 Oeste 0 -- -- 87
2019-07-19 10:00:00 15.2 14 Noroeste 27 Oeste 0 -- -- 91
2019-07-19 09:00:00 14 18 Noroeste 30 Oeste 0 -- -- 89
2019-07-19 08:00:00 13.1 14 Noroeste 28 Oeste 0 -- -- 96
2019-07-19 07:00:00 13.2 16 Oeste 24 Oeste 0 -- -- 92
2019-07-19 06:00:00 13.4 16 Noroeste 29 Noroeste 0 -- -- 96
2019-07-19 05:00:00 13.1 15 Oeste 27 Noroeste 0 -- -- 96
2019-07-19 04:00:00 13.4 13 Noroeste 23 Noroeste 0 -- -- 96
2019-07-19 03:00:00 13.1 10 Noroeste 25 Noroeste 0 -- -- 95
2019-07-19 02:00:00 13.3 12 Noroeste 23 Noroeste 0 -- -- 96
2019-07-19 01:00:00 13.5 13 Noroeste 23 Oeste 0 -- -- 96
2019-07-19 00:00:00 13.5 12 Oeste 22 Norte 0 -- -- 92